createdAt,value
2022-10-01T00:00:43.771Z,9.13
2022-10-01T00:01:43.830Z,9.12
2022-10-01T00:02:43.787Z,9.15
2022-10-01T00:03:43.770Z,9.13
2022-10-01T00:04:43.732Z,9.15
2022-10-01T00:05:43.723Z,9.13
2022-10-01T00:06:43.716Z,9.13
2022-10-01T00:07:43.709Z,9.12
2022-10-01T00:08:43.701Z,9.13
2022-10-01T00:09:43.703Z,9.12
2022-10-01T00:10:43.671Z,9.12
2022-10-01T00:11:43.653Z,9.12
2022-10-01T00:12:43.644Z,9.12
2022-10-01T00:13:43.637Z,9.12
2022-10-01T00:14:43.623Z,9.15
2022-10-01T00:15:43.652Z,9.13
2022-10-01T00:16:43.691Z,9.16
2022-10-01T00:17:43.595Z,9.18
2022-10-01T00:18:43.594Z,9.20
2022-10-01T00:19:43.573Z,9.18
2022-10-01T00:20:43.559Z,9.21
2022-10-01T00:21:43.575Z,9.20
2022-10-01T00:22:43.542Z,9.20
2022-10-01T00:23:43.538Z,9.21
2022-10-01T00:24:43.528Z,9.23
2022-10-01T00:25:43.507Z,9.21
2022-10-01T00:26:43.506Z,9.21
2022-10-01T00:27:43.539Z,9.21
2022-10-01T00:28:43.488Z,9.23
2022-10-01T00:29:43.468Z,9.23
2022-10-01T00:30:43.459Z,9.23
2022-10-01T00:31:43.502Z,9.23
2022-10-01T00:32:43.437Z,9.21
2022-10-01T00:33:43.466Z,9.21
2022-10-01T00:34:43.426Z,9.20
2022-10-01T00:35:43.409Z,9.21
2022-10-01T00:36:43.404Z,9.23
2022-10-01T00:37:43.386Z,9.21
2022-10-01T00:38:43.388Z,9.21
2022-10-01T00:39:43.400Z,9.23
2022-10-01T00:40:43.349Z,9.21
2022-10-01T00:41:43.348Z,9.20
2022-10-01T00:42:43.339Z,9.20
2022-10-01T00:43:43.325Z,9.18
2022-10-01T00:44:43.311Z,9.16
2022-10-01T00:45:43.385Z,9.20
2022-10-01T00:46:43.303Z,9.21
2022-10-01T00:47:43.282Z,9.21
2022-10-01T00:48:43.282Z,9.23
2022-10-01T00:49:43.253Z,9.23
2022-10-01T00:50:43.250Z,9.24
2022-10-01T00:51:43.264Z,9.25
2022-10-01T00:52:43.234Z,9.25
2022-10-01T00:53:43.222Z,9.27
2022-10-01T00:54:43.227Z,9.28
2022-10-01T00:55:43.211Z,9.28
2022-10-01T00:56:43.194Z,9.27
2022-10-01T00:57:43.206Z,9.27
2022-10-01T00:58:43.181Z,9.30
2022-10-01T00:59:43.160Z,9.31
2022-10-01T01:00:43.156Z,9.32
2022-10-01T01:01:43.191Z,9.32
2022-10-01T01:02:43.158Z,9.35
2022-10-01T01:03:43.147Z,9.34
2022-10-01T01:04:43.107Z,9.32
2022-10-01T01:05:43.096Z,9.32
2022-10-01T01:06:43.088Z,9.32
2022-10-01T01:07:43.069Z,9.31
2022-10-01T01:08:43.077Z,9.32
2022-10-01T01:09:43.078Z,9.32
2022-10-01T01:10:43.043Z,9.32
2022-10-01T01:11:43.035Z,9.31
2022-10-01T01:12:43.019Z,9.32
2022-10-01T01:13:43.009Z,9.32
2022-10-01T01:14:43.000Z,9.32
2022-10-01T01:15:43.074Z,9.34
2022-10-01T01:16:42.990Z,9.35
2022-10-01T01:17:42.968Z,9.35
2022-10-01T01:18:42.978Z,9.35
2022-10-01T01:19:42.953Z,9.35
2022-10-01T01:20:42.940Z,9.35
2022-10-01T01:21:42.969Z,9.35
2022-10-01T01:22:42.922Z,9.35
2022-10-01T01:23:42.900Z,9.38
2022-10-01T01:24:42.902Z,9.35
2022-10-01T01:25:42.882Z,9.38
2022-10-01T01:26:42.879Z,9.38
2022-10-01T01:27:42.927Z,9.39
2022-10-01T01:28:42.862Z,9.39
2022-10-01T01:29:42.841Z,9.38
2022-10-01T01:30:42.863Z,9.38
2022-10-01T01:31:42.849Z,9.39
2022-10-01T01:32:42.813Z,9.35
2022-10-01T01:33:42.833Z,9.38
2022-10-01T01:34:42.794Z,9.39
2022-10-01T01:35:42.784Z,9.39
2022-10-01T01:36:42.782Z,9.39
2022-10-01T01:37:42.762Z,9.40
2022-10-01T01:38:42.768Z,9.39
2022-10-01T01:39:43.726Z,9.40
2022-10-01T01:40:42.732Z,9.39
2022-10-01T01:41:42.715Z,9.39
2022-10-01T01:42:42.714Z,9.40
2022-10-01T01:43:42.695Z,9.40
2022-10-01T01:44:42.693Z,9.42
2022-10-01T01:45:42.793Z,9.39
2022-10-01T01:46:42.668Z,9.38
2022-10-01T01:47:42.658Z,9.38
2022-10-01T01:48:42.666Z,9.34
2022-10-01T01:49:42.637Z,9.32
2022-10-01T01:50:42.629Z,9.32
2022-10-01T01:51:42.657Z,9.32
2022-10-01T01:52:42.608Z,9.31
2022-10-01T01:53:42.592Z,9.31
2022-10-01T01:54:42.581Z,9.30
2022-10-01T01:55:42.576Z,9.27
2022-10-01T01:56:42.568Z,9.27
2022-10-01T01:57:42.589Z,9.27
2022-10-01T01:58:42.558Z,9.27
2022-10-01T01:59:42.531Z,9.27
2022-10-01T02:00:42.519Z,9.25
2022-10-01T02:01:42.585Z,9.24
2022-10-01T02:02:42.525Z,9.23
2022-10-01T02:03:42.512Z,9.23
2022-10-01T02:04:42.480Z,9.21
2022-10-01T02:05:42.460Z,9.23
2022-10-01T02:06:42.474Z,9.21
2022-10-01T02:07:42.452Z,9.21
2022-10-01T02:08:42.454Z,9.21
2022-10-01T02:09:42.464Z,9.21
2022-10-01T02:10:42.420Z,9.21
2022-10-01T02:11:42.406Z,9.21
2022-10-01T02:12:42.401Z,9.23
2022-10-01T02:13:42.385Z,9.25
2022-10-01T02:14:42.382Z,9.27
2022-10-01T02:15:42.429Z,9.27
2022-10-01T02:16:42.357Z,9.27
2022-10-01T02:17:42.344Z,9.27
2022-10-01T02:18:42.344Z,9.27
2022-10-01T02:19:42.316Z,9.25
2022-10-01T02:20:42.314Z,9.23
2022-10-01T02:21:42.342Z,9.20
2022-10-01T02:22:42.296Z,9.16
2022-10-01T02:23:42.285Z,9.12
2022-10-01T02:24:42.271Z,9.06
2022-10-01T02:25:42.263Z,9.02
2022-10-01T02:26:42.256Z,8.97
2022-10-01T02:27:42.267Z,8.94
2022-10-01T02:28:42.242Z,8.88
2022-10-01T02:29:42.216Z,8.86
2022-10-01T02:30:42.208Z,8.81
2022-10-01T02:31:42.301Z,8.76
2022-10-01T02:32:42.199Z,8.73
2022-10-01T02:33:42.209Z,8.69
2022-10-01T02:34:42.171Z,8.66
2022-10-01T02:35:42.157Z,8.63
2022-10-01T02:36:42.155Z,8.62
2022-10-01T02:37:42.129Z,8.60
2022-10-01T02:38:42.140Z,8.58
2022-10-01T02:39:42.138Z,8.60
2022-10-01T02:40:42.107Z,8.57
2022-10-01T02:41:42.091Z,8.58
2022-10-01T02:42:42.091Z,8.62
2022-10-01T02:43:43.120Z,8.58
2022-10-01T02:44:42.065Z,8.58
2022-10-01T02:45:42.160Z,8.55
2022-10-01T02:46:42.043Z,8.55
2022-10-01T02:47:42.029Z,8.54
2022-10-01T02:48:42.040Z,8.53
2022-10-01T02:49:42.009Z,8.53
2022-10-01T02:50:42.003Z,8.53
2022-10-01T02:51:42.492Z,8.54
2022-10-01T02:52:41.985Z,8.57
2022-10-01T02:53:41.962Z,8.57
2022-10-01T02:54:41.960Z,8.60
2022-10-01T02:55:41.945Z,8.62
2022-10-01T02:56:48.577Z,8.63
2022-10-01T02:57:42.944Z,8.65
2022-10-01T02:58:41.927Z,8.68
2022-10-01T02:59:41.903Z,8.68
2022-10-01T03:00:41.894Z,8.66
2022-10-01T03:01:41.932Z,8.66
2022-10-01T03:02:41.913Z,8.66
2022-10-01T03:03:41.895Z,8.65
2022-10-01T03:04:41.858Z,8.68
2022-10-01T03:05:41.844Z,8.66
2022-10-01T03:06:41.835Z,8.68
2022-10-01T03:07:41.816Z,8.69
2022-10-01T03:08:41.827Z,8.71
2022-10-01T03:09:41.818Z,8.72
2022-10-01T03:10:46.514Z,8.73
2022-10-01T03:11:42.788Z,8.73
2022-10-01T03:12:41.838Z,8.75
2022-10-01T03:13:41.758Z,8.75
2022-10-01T03:14:41.759Z,8.76
2022-10-01T03:15:41.859Z,8.78
2022-10-01T03:16:41.735Z,8.78
2022-10-01T03:17:41.720Z,8.78
2022-10-01T03:18:41.719Z,8.79
2022-10-01T03:19:41.689Z,8.81
2022-10-01T03:20:41.690Z,8.81
2022-10-01T03:21:41.709Z,8.83
2022-10-01T03:22:41.668Z,8.84
2022-10-01T03:23:41.659Z,8.84
2022-10-01T03:24:41.658Z,8.83
2022-10-01T03:25:41.630Z,8.84
2022-10-01T03:26:41.627Z,8.84
2022-10-01T03:27:41.642Z,8.84
2022-10-01T03:28:41.611Z,8.86
2022-10-01T03:29:41.591Z,8.84
2022-10-01T03:30:41.584Z,8.83
2022-10-01T03:31:41.639Z,8.84
2022-10-01T03:32:41.570Z,8.84
2022-10-01T03:33:41.593Z,8.84
2022-10-01T03:34:41.541Z,8.83
2022-10-01T03:35:41.522Z,8.81
2022-10-01T03:36:41.521Z,8.79
2022-10-01T03:37:41.502Z,8.79
2022-10-01T03:38:41.507Z,8.78
2022-10-01T03:39:41.513Z,8.76
2022-10-01T03:40:41.481Z,8.75
2022-10-01T03:41:41.465Z,8.75
2022-10-01T03:42:41.463Z,8.73
2022-10-01T03:43:41.451Z,8.72
2022-10-01T03:44:41.442Z,8.73
2022-10-01T03:45:41.486Z,8.75
2022-10-01T03:46:41.415Z,8.76
2022-10-01T03:47:41.403Z,8.75
2022-10-01T03:48:41.409Z,8.75
2022-10-01T03:49:41.386Z,8.73
2022-10-01T03:50:41.377Z,8.76
2022-10-01T03:51:41.397Z,8.75
2022-10-01T03:52:41.355Z,8.73
2022-10-01T03:53:41.347Z,8.73
2022-10-01T03:54:41.338Z,8.71
2022-10-01T03:55:41.319Z,8.72
2022-10-01T03:56:41.316Z,8.72
2022-10-01T03:57:41.348Z,8.72
2022-10-01T03:58:41.306Z,8.71
2022-10-01T03:59:41.281Z,8.71
2022-10-01T04:00:41.277Z,8.69
2022-10-01T04:01:41.369Z,8.69
2022-10-01T04:02:41.297Z,8.69
2022-10-01T04:03:41.265Z,8.68
2022-10-01T04:04:41.230Z,8.68
2022-10-01T04:05:41.218Z,8.68
2022-10-01T04:06:41.210Z,8.68
2022-10-01T04:07:41.198Z,8.68
2022-10-01T04:08:41.210Z,8.69
2022-10-01T04:09:41.213Z,8.68
2022-10-01T04:10:41.171Z,8.68
2022-10-01T04:11:41.151Z,8.69
2022-10-01T04:12:41.143Z,8.66
2022-10-01T04:13:41.131Z,8.65
2022-10-01T04:14:41.121Z,8.65
2022-10-01T04:15:41.141Z,8.62
2022-10-01T04:16:41.186Z,8.62
2022-10-01T04:17:45.732Z,8.60
2022-10-01T04:18:42.094Z,8.58
2022-10-01T04:19:41.074Z,8.57
2022-10-01T04:20:41.078Z,8.54
2022-10-01T04:21:41.093Z,8.53
2022-10-01T04:22:41.046Z,8.50
2022-10-01T04:23:41.033Z,8.48
2022-10-01T04:24:41.028Z,8.47
2022-10-01T04:25:41.005Z,8.45
2022-10-01T04:26:41.004Z,8.42
2022-10-01T04:27:41.020Z,8.42
2022-10-01T04:28:40.974Z,8.39
2022-10-01T04:29:40.965Z,8.37
2022-10-01T04:30:40.957Z,8.36
2022-10-01T04:31:41.004Z,8.36
2022-10-01T04:32:40.950Z,8.32
2022-10-01T04:33:40.956Z,8.32
2022-10-01T04:34:40.917Z,8.30
2022-10-01T04:35:40.906Z,8.28
2022-10-01T04:36:40.887Z,8.28
2022-10-01T04:37:40.894Z,8.29
2022-10-01T04:38:40.879Z,8.28
2022-10-01T04:39:40.908Z,8.32
2022-10-01T04:40:40.849Z,8.33
2022-10-01T04:41:40.847Z,8.30
2022-10-01T04:42:40.830Z,8.33
2022-10-01T04:43:40.830Z,8.33
2022-10-01T04:44:40.815Z,8.32
2022-10-01T04:45:40.840Z,8.32
2022-10-01T04:46:40.787Z,8.32
2022-10-01T04:47:40.730Z,8.30
2022-10-01T04:48:40.719Z,8.29
2022-10-01T04:49:40.710Z,8.28
2022-10-01T04:50:40.698Z,8.28
2022-10-01T04:51:40.779Z,8.26
2022-10-01T04:52:40.722Z,8.26
2022-10-01T04:53:40.662Z,8.29
2022-10-01T04:54:40.653Z,8.30
2022-10-01T04:55:40.651Z,8.32
2022-10-01T04:56:40.636Z,8.35
2022-10-01T04:57:40.661Z,8.35
2022-10-01T04:58:40.611Z,8.36
2022-10-01T04:59:40.602Z,8.37
2022-10-01T05:00:40.676Z,8.39
2022-10-01T05:01:40.683Z,8.39
2022-10-01T05:02:40.574Z,8.42
2022-10-01T05:03:40.602Z,8.42
2022-10-01T05:04:40.554Z,8.42
2022-10-01T05:05:40.545Z,8.44
2022-10-01T05:06:40.528Z,8.42
2022-10-01T05:07:40.525Z,8.42
2022-10-01T05:08:40.512Z,8.42
2022-10-01T05:09:40.525Z,8.40
2022-10-01T05:10:40.485Z,8.40
2022-10-01T05:11:40.476Z,8.45
2022-10-01T05:12:40.467Z,8.45
2022-10-01T05:13:40.453Z,8.44
2022-10-01T05:14:40.446Z,8.44
2022-10-01T05:15:40.477Z,8.44
2022-10-01T05:16:40.472Z,8.44
2022-10-01T05:17:40.416Z,8.45
2022-10-01T05:18:40.413Z,8.44
2022-10-01T05:19:40.397Z,8.53
2022-10-01T05:20:40.387Z,8.57
2022-10-01T05:21:40.407Z,8.57
2022-10-01T05:22:40.367Z,8.54
2022-10-01T05:23:40.361Z,8.55
2022-10-01T05:24:40.348Z,8.55
2022-10-01T05:25:40.346Z,8.57
2022-10-01T05:26:40.330Z,8.55
2022-10-01T05:27:40.347Z,8.53
2022-10-01T05:28:40.339Z,8.54
2022-10-01T05:29:40.291Z,8.55
2022-10-01T05:30:40.280Z,8.57
2022-10-01T05:31:40.403Z,8.55
2022-10-01T05:32:40.261Z,8.54
2022-10-01T05:33:40.271Z,8.55
2022-10-01T05:34:40.230Z,8.55
2022-10-01T05:35:40.231Z,8.57
2022-10-01T05:36:40.219Z,8.57
2022-10-01T05:37:40.212Z,8.63
2022-10-01T05:38:40.196Z,8.66
2022-10-01T05:39:40.212Z,8.69
2022-10-01T05:40:40.173Z,8.71
2022-10-01T05:41:40.172Z,8.76
2022-10-01T05:42:40.153Z,8.78
2022-10-01T05:43:40.150Z,8.81
2022-10-01T05:44:40.133Z,8.79
2022-10-01T05:45:40.181Z,8.83
2022-10-01T05:46:40.114Z,8.83
2022-10-01T05:47:40.113Z,8.83
2022-10-01T05:48:40.094Z,8.84
2022-10-01T05:49:40.084Z,8.86
2022-10-01T05:50:40.076Z,8.87
2022-10-01T05:51:40.102Z,8.86
2022-10-01T05:52:40.045Z,8.88
2022-10-01T05:53:40.048Z,8.88
2022-10-01T05:54:40.036Z,8.88
2022-10-01T05:55:40.017Z,8.90
2022-10-01T05:56:40.015Z,8.91
2022-10-01T05:57:40.037Z,8.94
2022-10-01T05:58:39.986Z,8.96
2022-10-01T05:59:39.978Z,8.99
2022-10-01T06:00:39.976Z,9.01
2022-10-01T06:01:39.980Z,9.04
2022-10-01T06:02:40.028Z,9.05
2022-10-01T06:03:39.976Z,9.09
2022-10-01T06:04:41.265Z,9.12
2022-10-01T06:05:39.918Z,9.16
2022-10-01T06:06:39.899Z,9.21
2022-10-01T06:07:39.899Z,9.23
2022-10-01T06:08:39.889Z,9.27
2022-10-01T06:09:39.903Z,9.30
2022-10-01T06:10:39.867Z,9.32
2022-10-01T06:11:39.850Z,9.35
2022-10-01T06:12:39.850Z,9.40
2022-10-01T06:13:39.840Z,9.45
2022-10-01T06:14:39.820Z,9.48
2022-10-01T06:15:39.840Z,9.50
2022-10-01T06:16:39.930Z,9.56
2022-10-01T06:17:39.801Z,9.58
2022-10-01T06:18:39.779Z,9.63
2022-10-01T06:19:39.772Z,9.68
2022-10-01T06:20:39.762Z,9.75
2022-10-01T06:21:39.781Z,9.79
2022-10-01T06:22:39.742Z,9.82
2022-10-01T06:23:39.733Z,9.85
2022-10-01T06:24:39.722Z,9.89
2022-10-01T06:25:39.715Z,9.91
2022-10-01T06:26:39.706Z,9.93
2022-10-01T06:27:39.724Z,9.93
2022-10-01T06:28:39.674Z,9.91
2022-10-01T06:29:39.675Z,9.93
2022-10-01T06:30:39.656Z,9.94
2022-10-01T06:31:39.700Z,9.91
2022-10-01T06:32:39.632Z,9.89
2022-10-01T06:33:39.665Z,9.89
2022-10-01T06:34:39.614Z,9.91
2022-10-01T06:35:39.605Z,9.93
2022-10-01T06:36:39.594Z,9.93
2022-10-01T06:37:39.586Z,9.89
2022-10-01T06:38:39.567Z,9.91
2022-10-01T06:39:39.592Z,9.88
2022-10-01T06:40:39.564Z,9.88
2022-10-01T06:41:39.539Z,9.88
2022-10-01T06:42:39.537Z,9.91
2022-10-01T06:43:39.527Z,9.91
2022-10-01T06:44:39.518Z,9.91
2022-10-01T06:45:39.578Z,9.93
2022-10-01T06:46:39.488Z,9.93
2022-10-01T06:47:39.483Z,9.89
2022-10-01T06:48:39.470Z,9.91
2022-10-01T06:49:39.460Z,9.93
2022-10-01T06:50:39.449Z,9.93
2022-10-01T06:51:39.470Z,9.91
2022-10-01T06:52:39.429Z,9.91
2022-10-01T06:53:39.421Z,9.91
2022-10-01T06:54:39.407Z,9.91
2022-10-01T06:55:39.402Z,9.93
2022-10-01T06:56:39.389Z,9.89
2022-10-01T06:57:39.418Z,9.93
2022-10-01T06:58:39.376Z,9.91
2022-10-01T06:59:39.356Z,9.89
2022-10-01T07:00:39.406Z,9.93
2022-10-01T07:01:39.552Z,9.96
2022-10-01T07:02:39.363Z,9.96
2022-10-01T07:03:39.350Z,9.99
2022-10-01T07:04:39.294Z,9.99
2022-10-01T07:05:39.295Z,10.01
2022-10-01T07:06:39.283Z,10.03
2022-10-01T07:07:39.266Z,10.03
2022-10-01T07:08:39.264Z,10.01
2022-10-01T07:09:39.292Z,10.03
2022-10-01T07:10:39.234Z,10.03
2022-10-01T07:11:39.235Z,10.06
2022-10-01T07:12:39.206Z,10.09
2022-10-01T07:13:39.206Z,10.10
2022-10-01T07:14:39.195Z,10.10
2022-10-01T07:15:39.214Z,10.12
2022-10-01T07:16:39.262Z,10.15
2022-10-01T07:17:39.166Z,10.17
2022-10-01T07:18:39.146Z,10.17
2022-10-01T07:19:39.147Z,10.19
2022-10-01T07:20:39.128Z,10.21
2022-10-01T07:21:39.149Z,10.21
2022-10-01T07:22:39.107Z,10.21
2022-10-01T07:23:39.098Z,10.26
2022-10-01T07:24:39.089Z,10.28
2022-10-01T07:25:39.080Z,10.30
2022-10-01T07:26:39.066Z,10.33
2022-10-01T07:27:39.086Z,10.36
2022-10-01T07:28:39.047Z,10.34
2022-10-01T07:29:39.037Z,10.37
2022-10-01T07:30:39.022Z,10.37
2022-10-01T07:31:39.381Z,10.37
2022-10-01T07:32:39.001Z,10.37
2022-10-01T07:33:39.019Z,10.39
2022-10-01T07:34:38.981Z,10.43
2022-10-01T07:35:38.977Z,10.46
2022-10-01T07:36:38.961Z,10.46
2022-10-01T07:37:38.951Z,10.44
2022-10-01T07:38:38.943Z,10.51
2022-10-01T07:39:38.970Z,10.58
2022-10-01T07:40:38.913Z,10.62
2022-10-01T07:41:38.910Z,10.65
2022-10-01T07:42:38.900Z,10.70
2022-10-01T07:43:38.892Z,10.73
2022-10-01T07:44:38.876Z,10.74
2022-10-01T07:45:38.929Z,10.76
2022-10-01T07:46:38.854Z,10.80
2022-10-01T07:47:38.854Z,10.86
2022-10-01T07:48:38.835Z,10.91
2022-10-01T07:49:38.825Z,10.95
2022-10-01T07:50:38.814Z,11.02
2022-10-01T07:51:38.836Z,11.10
2022-10-01T07:52:38.794Z,11.17
2022-10-01T07:53:38.785Z,11.21
2022-10-01T07:54:38.774Z,11.29
2022-10-01T07:55:38.769Z,11.32
2022-10-01T07:56:38.753Z,11.31
2022-10-01T07:57:38.768Z,11.35
2022-10-01T07:58:38.726Z,11.35
2022-10-01T07:59:38.716Z,11.43
2022-10-01T08:00:38.709Z,11.53
2022-10-01T08:01:38.900Z,11.64
2022-10-01T08:02:38.762Z,11.75
2022-10-01T08:03:38.710Z,11.90
2022-10-01T08:04:38.659Z,12.12
2022-10-01T08:05:38.661Z,12.24
2022-10-01T08:06:38.641Z,12.12
2022-10-01T08:07:38.636Z,12.26
2022-10-01T08:08:38.619Z,12.39
2022-10-01T08:09:38.651Z,12.52
2022-10-01T08:10:38.603Z,12.42
2022-10-01T08:11:38.590Z,12.30
2022-10-01T08:12:38.580Z,12.45
2022-10-01T08:13:38.572Z,12.64
2022-10-01T08:14:38.561Z,12.64
2022-10-01T08:15:38.592Z,12.60
2022-10-01T08:16:38.600Z,12.57
2022-10-01T08:17:38.532Z,12.59
2022-10-01T08:18:38.524Z,12.57
2022-10-01T08:19:38.510Z,12.46
2022-10-01T08:20:38.504Z,12.38
2022-10-01T08:21:38.520Z,12.33
2022-10-01T08:22:41.867Z,12.21
2022-10-01T08:23:38.473Z,12.09
2022-10-01T08:24:38.464Z,11.99
2022-10-01T08:25:38.450Z,11.78
2022-10-01T08:26:38.435Z,11.77
2022-10-01T08:27:38.455Z,11.68
2022-10-01T08:28:38.418Z,11.54
2022-10-01T08:29:38.404Z,11.54
2022-10-01T08:30:38.395Z,11.49
2022-10-01T08:31:38.720Z,11.41
2022-10-01T08:32:38.367Z,11.44
2022-10-01T08:33:38.403Z,11.49
2022-10-01T08:34:38.347Z,11.47
2022-10-01T08:35:38.349Z,11.46
2022-10-01T08:36:38.336Z,11.39
2022-10-01T08:37:38.328Z,11.43
2022-10-01T08:38:38.308Z,11.39
2022-10-01T08:39:38.345Z,11.38
2022-10-01T08:40:38.304Z,11.44
2022-10-01T08:41:38.480Z,11.49
2022-10-01T08:42:38.269Z,11.52
2022-10-01T08:43:38.263Z,11.57
2022-10-01T08:44:38.248Z,11.62
2022-10-01T08:45:38.288Z,11.70
2022-10-01T08:46:38.230Z,11.74
2022-10-01T08:47:38.223Z,11.77
2022-10-01T08:48:38.211Z,11.80
2022-10-01T08:49:38.192Z,11.83
2022-10-01T08:50:38.189Z,11.87
2022-10-01T08:51:38.354Z,11.93
2022-10-01T08:52:38.164Z,11.96
2022-10-01T08:53:38.152Z,11.93
2022-10-01T08:54:38.152Z,11.90
2022-10-01T08:55:38.133Z,11.94
2022-10-01T08:56:38.133Z,11.97
2022-10-01T08:57:38.134Z,11.99
2022-10-01T08:58:38.104Z,11.89
2022-10-01T08:59:38.092Z,11.87
2022-10-01T09:00:38.084Z,11.83
2022-10-01T09:01:38.535Z,11.75
2022-10-01T09:02:38.063Z,11.80
2022-10-01T09:03:38.073Z,11.72
2022-10-01T09:04:38.103Z,11.70
2022-10-01T09:05:38.034Z,11.72
2022-10-01T09:06:38.016Z,11.75
2022-10-01T09:07:38.006Z,11.80
2022-10-01T09:08:37.996Z,11.87
2022-10-01T09:09:38.029Z,11.86
2022-10-01T09:10:37.985Z,11.86
2022-10-01T09:11:38.057Z,11.93
2022-10-01T09:12:37.956Z,11.99
2022-10-01T09:13:37.940Z,12.02
2022-10-01T09:14:37.929Z,12.04
2022-10-01T09:15:37.940Z,12.08
2022-10-01T09:16:37.994Z,12.21
2022-10-01T09:17:37.891Z,12.24
2022-10-01T09:18:37.888Z,12.34
2022-10-01T09:19:40.692Z,12.41
2022-10-01T09:20:37.869Z,12.49
2022-10-01T09:21:37.879Z,12.51
2022-10-01T09:22:37.842Z,12.54
2022-10-01T09:23:37.831Z,12.60
2022-10-01T09:24:37.823Z,12.66
2022-10-01T09:25:37.812Z,12.71
2022-10-01T09:26:37.801Z,12.71
2022-10-01T09:27:37.843Z,12.70
2022-10-01T09:28:37.782Z,12.70
2022-10-01T09:29:37.773Z,12.78
2022-10-01T09:30:37.755Z,12.87
2022-10-01T09:31:38.188Z,12.96
2022-10-01T09:32:37.736Z,13.02
2022-10-01T09:33:37.754Z,12.92
2022-10-01T09:34:37.717Z,12.87
2022-10-01T09:35:37.704Z,12.84
2022-10-01T09:36:37.693Z,12.87
2022-10-01T09:37:37.676Z,12.79
2022-10-01T09:38:37.677Z,12.84
2022-10-01T09:39:37.707Z,12.77
2022-10-01T09:40:37.647Z,12.81
2022-10-01T09:41:37.688Z,12.84
2022-10-01T09:42:37.629Z,12.88
2022-10-01T09:43:37.608Z,12.92
2022-10-01T09:44:37.609Z,12.95
2022-10-01T09:45:37.639Z,12.93
2022-10-01T09:46:37.589Z,12.95
2022-10-01T09:47:37.570Z,12.96
2022-10-01T09:48:37.565Z,13.00
2022-10-01T09:49:37.548Z,12.92
2022-10-01T09:50:37.540Z,12.84
2022-10-01T09:51:40.406Z,12.74
2022-10-01T09:52:37.521Z,12.71
2022-10-01T09:53:37.511Z,12.77
2022-10-01T09:54:37.499Z,12.85
2022-10-01T09:55:37.482Z,12.96
2022-10-01T09:56:37.483Z,13.04
2022-10-01T09:57:37.481Z,13.03
2022-10-01T09:58:37.454Z,13.07
2022-10-01T09:59:37.443Z,13.11
2022-10-01T10:00:37.441Z,13.21
2022-10-01T10:01:37.923Z,13.29
2022-10-01T10:02:37.522Z,13.33
2022-10-01T10:03:37.486Z,13.43
2022-10-01T10:04:37.394Z,13.46
2022-10-01T10:05:37.383Z,13.40
2022-10-01T10:06:37.812Z,13.36
2022-10-01T10:07:37.355Z,13.32
2022-10-01T10:08:37.355Z,13.37
2022-10-01T10:09:37.356Z,13.41
2022-10-01T10:10:37.326Z,13.47
2022-10-01T10:11:37.321Z,13.43
2022-10-01T10:12:37.319Z,13.38
2022-10-01T10:13:37.295Z,13.37
2022-10-01T10:14:37.286Z,13.46
2022-10-01T10:15:37.311Z,13.56
2022-10-01T10:16:37.927Z,13.59
2022-10-01T10:17:37.255Z,13.61
2022-10-01T10:18:37.251Z,13.44
2022-10-01T10:19:37.238Z,13.36
2022-10-01T10:20:37.228Z,13.38
2022-10-01T10:21:37.242Z,13.36
2022-10-01T10:22:37.208Z,13.33
2022-10-01T10:23:37.193Z,13.30
2022-10-01T10:24:37.191Z,13.20
2022-10-01T10:25:37.170Z,13.22
2022-10-01T10:26:37.472Z,13.27
2022-10-01T10:27:37.173Z,13.30
2022-10-01T10:28:39.620Z,13.32
2022-10-01T10:29:37.133Z,13.29
2022-10-01T10:30:37.123Z,13.25
2022-10-01T10:31:37.193Z,13.33
2022-10-01T10:32:37.103Z,13.33
2022-10-01T10:33:37.121Z,13.36
2022-10-01T10:34:37.077Z,13.38
2022-10-01T10:35:37.098Z,13.43
2022-10-01T10:36:37.390Z,13.44
2022-10-01T10:37:37.060Z,13.43
2022-10-01T10:38:37.046Z,13.47
2022-10-01T10:39:37.053Z,13.55
2022-10-01T10:40:37.025Z,13.47
2022-10-01T10:41:37.508Z,13.44
2022-10-01T10:42:36.997Z,13.44
2022-10-01T10:43:36.984Z,13.43
2022-10-01T10:44:36.976Z,13.44
2022-10-01T10:45:36.988Z,13.43
2022-10-01T10:46:37.003Z,13.43
2022-10-01T10:47:37.046Z,13.47
2022-10-01T10:48:36.941Z,13.40
2022-10-01T10:49:36.925Z,13.44
2022-10-01T10:50:36.926Z,13.47
2022-10-01T10:51:37.320Z,13.46
2022-10-01T10:52:36.901Z,13.47
2022-10-01T10:53:36.878Z,13.54
2022-10-01T10:54:36.871Z,13.49
2022-10-01T10:55:36.862Z,13.38
2022-10-01T10:56:37.227Z,13.36
2022-10-01T10:57:36.864Z,13.38
2022-10-01T10:58:36.830Z,13.41
2022-10-01T10:59:36.820Z,13.37
2022-10-01T11:00:36.812Z,13.46
2022-10-01T11:01:37.176Z,13.51
2022-10-01T11:02:36.833Z,13.52
2022-10-01T11:03:36.804Z,13.51
2022-10-01T11:04:36.773Z,13.40
2022-10-01T11:05:36.754Z,13.43
2022-10-01T11:06:36.973Z,13.44
2022-10-01T11:07:36.738Z,13.40
2022-10-01T11:08:36.724Z,13.37
2022-10-01T11:09:36.754Z,13.49
2022-10-01T11:10:36.713Z,13.59
2022-10-01T11:11:36.688Z,13.69
2022-10-01T11:12:36.688Z,13.70
2022-10-01T11:13:36.666Z,13.65
2022-10-01T11:14:36.674Z,13.79
2022-10-01T11:15:36.733Z,13.77
2022-10-01T11:16:37.088Z,13.76
2022-10-01T11:17:36.629Z,13.83
2022-10-01T11:18:36.626Z,13.87
2022-10-01T11:19:36.607Z,13.81
2022-10-01T11:20:36.609Z,13.84
2022-10-01T11:21:36.619Z,13.88
2022-10-01T11:22:36.581Z,13.91
2022-10-01T11:23:36.567Z,13.88
2022-10-01T11:24:36.570Z,13.84
2022-10-01T11:25:36.543Z,13.91
2022-10-01T11:26:37.047Z,13.99
2022-10-01T11:27:36.571Z,14.04
2022-10-01T11:28:36.522Z,14.20
2022-10-01T11:29:36.502Z,14.20
2022-10-01T11:30:36.501Z,14.44
2022-10-01T11:31:36.502Z,14.50
2022-10-01T11:32:36.483Z,14.64
2022-10-01T11:33:36.490Z,14.68
2022-10-01T11:34:36.452Z,14.71
2022-10-01T11:35:36.443Z,14.74
2022-10-01T11:36:36.766Z,14.72
2022-10-01T11:37:36.418Z,14.68
2022-10-01T11:38:36.413Z,14.62
2022-10-01T11:39:36.426Z,14.61
2022-10-01T11:40:36.395Z,14.49
2022-10-01T11:41:36.375Z,14.46
2022-10-01T11:42:36.374Z,14.53
2022-10-01T11:43:36.356Z,14.68
2022-10-01T11:44:36.359Z,14.61
2022-10-01T11:45:36.361Z,14.61
2022-10-01T11:46:36.501Z,14.52
2022-10-01T11:47:36.310Z,14.29
2022-10-01T11:48:36.307Z,14.19
2022-10-01T11:49:36.289Z,14.06
2022-10-01T11:50:39.388Z,13.88
2022-10-01T11:51:36.296Z,13.79
2022-10-01T11:52:36.267Z,13.76
2022-10-01T11:53:36.252Z,13.69
2022-10-01T11:54:36.239Z,13.67
2022-10-01T11:55:36.231Z,13.63
2022-10-01T11:56:36.482Z,13.63
2022-10-01T11:57:36.230Z,13.58
2022-10-01T11:58:36.200Z,13.54
2022-10-01T11:59:36.190Z,13.58
2022-10-01T12:00:36.182Z,13.61
2022-10-01T12:01:36.214Z,13.65
2022-10-01T12:02:36.169Z,13.79
2022-10-01T12:03:36.174Z,13.80
2022-10-01T12:04:36.144Z,13.81
2022-10-01T12:05:36.171Z,13.80
2022-10-01T12:06:36.439Z,13.76
2022-10-01T12:07:36.103Z,13.71
2022-10-01T12:08:36.102Z,13.65
2022-10-01T12:09:36.117Z,13.71
2022-10-01T12:10:36.082Z,13.70
2022-10-01T12:11:36.065Z,13.71
2022-10-01T12:12:36.055Z,13.70
2022-10-01T12:13:36.042Z,13.76
2022-10-01T12:14:36.042Z,13.80
2022-10-01T12:15:36.047Z,13.91
2022-10-01T12:16:36.266Z,13.95
2022-10-01T12:17:36.004Z,14.01
2022-10-01T12:18:35.999Z,14.06
2022-10-01T12:19:35.979Z,14.09
2022-10-01T12:20:35.979Z,14.07
2022-10-01T12:21:35.988Z,14.06
2022-10-01T12:22:35.956Z,14.07
2022-10-01T12:23:35.936Z,14.04
2022-10-01T12:24:35.939Z,13.99
2022-10-01T12:25:35.919Z,13.92
2022-10-01T12:26:36.366Z,13.91
2022-10-01T12:27:35.919Z,13.91
2022-10-01T12:28:35.891Z,13.92
2022-10-01T12:29:35.872Z,13.88
2022-10-01T12:30:35.871Z,13.80
2022-10-01T12:31:35.917Z,13.81
2022-10-01T12:32:35.852Z,13.84
2022-10-01T12:33:35.878Z,13.88
2022-10-01T12:34:35.826Z,13.87
2022-10-01T12:35:35.819Z,13.84
2022-10-01T12:36:36.311Z,13.84
2022-10-01T12:37:35.792Z,13.89
2022-10-01T12:38:35.783Z,13.89
2022-10-01T12:39:35.793Z,13.89
2022-10-01T12:40:35.772Z,13.92
2022-10-01T12:41:35.755Z,13.92
2022-10-01T12:42:35.743Z,13.88
2022-10-01T12:43:35.736Z,13.87
2022-10-01T12:44:35.723Z,13.89
2022-10-01T12:45:35.743Z,13.92
2022-10-01T12:46:36.048Z,13.89
2022-10-01T12:47:35.697Z,13.87
2022-10-01T12:48:35.684Z,13.87
2022-10-01T12:49:35.669Z,13.84
2022-10-01T12:50:35.666Z,13.80
2022-10-01T12:51:35.668Z,13.81
2022-10-01T12:52:35.641Z,13.83
2022-10-01T12:53:35.627Z,13.91
2022-10-01T12:54:35.620Z,13.94
2022-10-01T12:55:35.616Z,13.95
2022-10-01T12:56:35.904Z,14.01
2022-10-01T12:57:35.609Z,14.06
2022-10-01T12:58:35.581Z,14.13
2022-10-01T12:59:35.562Z,14.17
2022-10-01T13:00:35.621Z,14.20
2022-10-01T13:01:35.573Z,14.25
2022-10-01T13:02:35.539Z,14.25
2022-10-01T13:03:35.548Z,14.28
2022-10-01T13:04:35.514Z,14.24
2022-10-01T13:05:35.510Z,14.16
2022-10-01T13:06:35.685Z,14.17